createdAt,value
2023-02-18T00:01:30.344Z,9.17
2023-02-18T00:03:58.441Z,9.22
2023-02-18T00:06:32.791Z,9.29
2023-02-18T00:09:02.184Z,9.27
2023-02-18T00:11:30.988Z,9.28
2023-02-18T00:14:00.045Z,9.42
2023-02-18T00:16:28.288Z,9.28
2023-02-18T00:18:57.059Z,9.26
2023-02-18T00:21:23.862Z,9.38
2023-02-18T00:23:51.173Z,9.38
2023-02-18T00:26:19.184Z,9.24
2023-02-18T00:28:51.881Z,9.27
2023-02-18T00:31:22.149Z,9.49
2023-02-18T00:33:48.908Z,9.32
2023-02-18T00:36:17.406Z,9.37
2023-02-18T00:38:46.416Z,9.43
2023-02-18T00:41:13.623Z,9.25
2023-02-18T00:43:40.262Z,9.25
2023-02-18T00:46:07.801Z,9.42
2023-02-18T00:48:35.024Z,9.46
2023-02-18T00:51:04.284Z,9.38
2023-02-18T00:53:31.118Z,9.46
2023-02-18T00:55:58.155Z,9.56
2023-02-18T00:58:25.231Z,9.63
2023-02-18T01:00:52.175Z,9.74
2023-02-18T01:03:19.095Z,9.48
2023-02-18T01:05:45.888Z,9.61
2023-02-18T01:08:12.654Z,9.57
2023-02-18T01:10:44.835Z,9.61
2023-02-18T01:13:12.502Z,9.59
2023-02-18T01:15:40.887Z,9.81
2023-02-18T01:18:08.612Z,9.78
2023-02-18T01:20:37.081Z,9.79
2023-02-18T01:23:04.921Z,9.86
2023-02-18T01:25:32.498Z,9.98
2023-02-18T01:28:00.914Z,10.02
2023-02-18T01:30:28.340Z,10.01
2023-02-18T01:32:56.553Z,9.89
2023-02-18T01:35:24.148Z,9.95
2023-02-18T01:37:51.335Z,9.98
2023-02-18T01:40:25.073Z,10.08
2023-02-18T01:42:52.895Z,10.09
2023-02-18T01:45:34.806Z,10.14
2023-02-18T01:48:17.241Z,10.03
2023-02-18T01:50:47.320Z,10.14
2023-02-18T01:53:21.734Z,10.09
2023-02-18T01:55:49.448Z,10.14
2023-02-18T01:58:16.792Z,10.18
2023-02-18T02:00:45.597Z,10.05
2023-02-18T02:03:14.545Z,10.02
2023-02-18T02:05:43.747Z,10.12
2023-02-18T02:08:14.522Z,10.11
2023-02-18T02:10:50.453Z,10.16
2023-02-18T02:13:54.054Z,9.96
2023-02-18T02:16:26.677Z,10.06
2023-02-18T02:19:12.905Z,10.06
2023-02-18T02:22:14.289Z,10.11
2023-02-18T02:24:59.178Z,10.06
2023-02-18T02:28:20.671Z,10.23
2023-02-18T02:30:53.149Z,10.14
2023-02-18T02:33:57.181Z,10.25
2023-02-18T02:36:38.474Z,10.07
2023-02-18T02:39:24.124Z,10.38
2023-02-18T02:42:20.006Z,10.25
2023-02-18T02:45:01.990Z,10.33
2023-02-18T02:47:54.773Z,10.49
2023-02-18T02:50:30.561Z,10.46
2023-02-18T02:53:02.407Z,10.49
2023-02-18T02:55:29.092Z,10.50
2023-02-18T02:57:57.067Z,10.66
2023-02-18T03:00:58.774Z,10.44
2023-02-18T03:03:35.116Z,10.41
2023-02-18T03:06:21.273Z,10.26
2023-02-18T03:09:15.277Z,10.26
2023-02-18T03:12:11.048Z,10.36
2023-02-18T03:14:55.185Z,10.56
2023-02-18T03:17:27.737Z,10.51
2023-02-18T03:20:13.494Z,10.36
2023-02-18T03:22:46.585Z,10.51
2023-02-18T03:25:14.710Z,10.53
2023-02-18T03:27:56.582Z,10.43
2023-02-18T03:30:42.180Z,10.45
2023-02-18T03:33:14.224Z,10.51
2023-02-18T03:35:43.619Z,10.49
2023-02-18T03:38:24.798Z,10.66
2023-02-18T03:40:51.928Z,10.47
2023-02-18T03:43:19.191Z,10.74
2023-02-18T03:45:45.974Z,10.79
2023-02-18T03:48:12.630Z,10.50
2023-02-18T03:50:39.188Z,10.61
2023-02-18T03:53:05.827Z,10.35
2023-02-18T03:55:32.451Z,10.54
2023-02-18T03:57:59.026Z,10.51
2023-02-18T04:00:25.625Z,10.61
2023-02-18T04:02:52.156Z,10.76
2023-02-18T04:05:18.786Z,10.54
2023-02-18T04:07:45.393Z,10.63
2023-02-18T04:10:12.304Z,10.62
2023-02-18T04:12:38.950Z,10.55
2023-02-18T04:15:06.124Z,10.50
2023-02-18T04:17:34.040Z,10.56
2023-02-18T04:20:00.834Z,10.66
2023-02-18T04:22:27.703Z,10.65
2023-02-18T04:24:54.313Z,10.72
2023-02-18T04:27:20.973Z,10.58
2023-02-18T04:29:47.786Z,10.73
2023-02-18T04:32:14.428Z,10.59
2023-02-18T04:34:41.012Z,10.59
2023-02-18T04:37:07.676Z,10.73
2023-02-18T04:39:34.496Z,10.72
2023-02-18T04:42:01.490Z,10.81
2023-02-18T04:44:27.988Z,10.81
2023-02-18T04:46:54.560Z,10.59
2023-02-18T04:49:21.104Z,10.85
2023-02-18T04:51:47.651Z,10.73
2023-02-18T04:54:14.298Z,10.71
2023-02-18T04:56:40.844Z,10.83
2023-02-18T04:59:07.414Z,10.65
2023-02-18T05:01:34.118Z,10.78
2023-02-18T05:04:00.861Z,10.72
2023-02-18T05:06:27.465Z,10.94
2023-02-18T05:08:54.110Z,10.57
2023-02-18T05:11:20.857Z,10.82
2023-02-18T05:13:47.534Z,10.82
2023-02-18T05:16:14.170Z,10.84
2023-02-18T05:18:41.222Z,10.79
2023-02-18T05:21:08.195Z,10.97
2023-02-18T05:23:34.831Z,10.91
2023-02-18T05:26:01.503Z,10.90
2023-02-18T05:28:28.334Z,10.83
2023-02-18T05:30:55.124Z,10.92
2023-02-18T05:33:21.834Z,10.90
2023-02-18T05:35:49.306Z,10.79
2023-02-18T05:38:16.121Z,10.87
2023-02-18T05:40:42.732Z,11.01
2023-02-18T05:43:09.390Z,10.89
2023-02-18T05:45:36.668Z,10.85
2023-02-18T05:48:03.552Z,11.01
2023-02-18T05:50:30.130Z,10.96
2023-02-18T05:52:56.716Z,10.95
2023-02-18T05:55:24.378Z,10.79
2023-02-18T05:57:51.139Z,10.87
2023-02-18T06:00:18.584Z,10.98
2023-02-18T06:02:45.317Z,10.79
2023-02-18T06:05:14.457Z,10.83
2023-02-18T06:07:41.070Z,11.01
2023-02-18T06:10:08.223Z,11.02
2023-02-18T06:12:34.777Z,10.78
2023-02-18T06:15:01.376Z,10.86
2023-02-18T06:17:27.942Z,10.87
2023-02-18T06:19:54.487Z,10.98
2023-02-18T06:22:22.268Z,10.80
2023-02-18T06:24:48.888Z,10.76
2023-02-18T06:27:15.459Z,10.73
2023-02-18T06:29:42.185Z,10.79
2023-02-18T06:32:08.896Z,10.68
2023-02-18T06:34:35.481Z,10.72
2023-02-18T06:37:02.021Z,10.75
2023-02-18T06:39:29.145Z,10.68
2023-02-18T06:41:55.744Z,10.65
2023-02-18T06:44:22.376Z,10.78
2023-02-18T06:46:48.993Z,10.97
2023-02-18T06:49:15.628Z,10.89
2023-02-18T06:51:42.243Z,10.89
2023-02-18T06:54:08.911Z,10.60
2023-02-18T06:56:35.565Z,10.82
2023-02-18T06:59:02.117Z,10.75
2023-02-18T07:01:28.745Z,10.78
2023-02-18T07:03:55.932Z,10.76
2023-02-18T07:06:22.670Z,10.71
2023-02-18T07:08:49.276Z,10.60
2023-02-18T07:11:16.149Z,10.80
2023-02-18T07:13:42.697Z,10.73
2023-02-18T07:16:09.738Z,10.78
2023-02-18T07:18:36.407Z,10.80
2023-02-18T07:21:03.198Z,10.66
2023-02-18T07:23:29.802Z,10.68
2023-02-18T07:26:04.622Z,10.64
2023-02-18T07:28:31.288Z,10.65
2023-02-18T07:30:57.999Z,10.74
2023-02-18T07:33:24.699Z,10.61
2023-02-18T07:35:56.633Z,10.81
2023-02-18T07:38:24.713Z,10.68
2023-02-18T07:40:52.068Z,10.71
2023-02-18T07:43:18.813Z,10.76
2023-02-18T07:45:45.639Z,10.65
2023-02-18T07:48:13.086Z,10.82
2023-02-18T07:50:41.459Z,10.71
2023-02-18T07:53:09.051Z,10.73
2023-02-18T07:55:51.812Z,10.47
2023-02-18T07:58:19.377Z,10.65
2023-02-18T08:00:47.637Z,10.61
2023-02-18T08:03:16.397Z,10.69
2023-02-18T08:05:43.577Z,10.84
2023-02-18T08:08:13.791Z,10.77
2023-02-18T08:10:40.561Z,10.69
2023-02-18T08:13:07.356Z,10.66
2023-02-18T08:15:34.011Z,10.61
2023-02-18T08:18:01.510Z,10.80
2023-02-18T08:20:30.612Z,10.87
2023-02-18T08:22:57.680Z,10.66
2023-02-18T08:25:29.765Z,10.75
2023-02-18T08:27:56.732Z,10.54
2023-02-18T08:30:23.440Z,10.71
2023-02-18T08:32:50.122Z,10.66
2023-02-18T08:35:17.069Z,10.75
2023-02-18T08:37:52.606Z,10.76
2023-02-18T08:40:21.292Z,10.75
2023-02-18T08:42:48.067Z,10.77
2023-02-18T08:45:17.283Z,10.89
2023-02-18T08:48:17.766Z,10.87
2023-02-18T08:50:30.370Z,10.83
2023-02-18T08:52:57.919Z,10.67
2023-02-18T08:55:25.080Z,10.75
2023-02-18T08:57:51.638Z,10.89
2023-02-18T09:00:19.268Z,10.66
2023-02-18T09:02:47.403Z,10.80
2023-02-18T09:05:14.653Z,10.67
2023-02-18T09:07:41.400Z,10.89
2023-02-18T09:10:12.813Z,10.79
2023-02-18T09:12:39.374Z,10.78
2023-02-18T09:15:06.371Z,10.75
2023-02-18T09:17:33.827Z,10.56
2023-02-18T09:20:00.518Z,10.78
2023-02-18T09:22:27.288Z,10.59
2023-02-18T09:24:53.913Z,10.65
2023-02-18T09:27:22.074Z,10.57
2023-02-18T09:29:49.585Z,10.72
2023-02-18T09:32:32.593Z,10.73
2023-02-18T09:35:00.709Z,10.68
2023-02-18T09:37:27.354Z,10.63
2023-02-18T09:39:53.994Z,10.44
2023-02-18T09:42:28.098Z,10.71
2023-02-18T09:44:59.025Z,10.72
2023-02-18T09:47:34.760Z,10.57
2023-02-18T09:50:08.578Z,10.56
2023-02-18T09:52:38.368Z,10.57
2023-02-18T09:55:22.698Z,10.37
2023-02-18T09:57:55.940Z,10.56
2023-02-18T10:00:32.861Z,10.52
2023-02-18T10:03:15.252Z,10.47
2023-02-18T10:05:51.725Z,10.31
2023-02-18T10:08:30.236Z,10.25
2023-02-18T10:10:57.258Z,10.32
2023-02-18T10:13:33.793Z,10.47
2023-02-18T10:16:02.044Z,10.45
2023-02-18T10:18:41.921Z,10.35
2023-02-18T10:21:15.169Z,10.27
2023-02-18T10:23:54.573Z,10.14
2023-02-18T10:26:21.811Z,10.30
2023-02-18T10:28:48.698Z,10.30
2023-02-18T10:31:25.991Z,10.29
2023-02-18T10:33:59.107Z,10.24
2023-02-18T10:36:31.764Z,10.27
2023-02-18T10:38:58.265Z,10.16
2023-02-18T10:41:27.944Z,10.22
2023-02-18T10:44:17.567Z,9.93
2023-02-18T10:47:04.063Z,10.09
2023-02-18T10:49:33.761Z,10.25
2023-02-18T10:52:04.794Z,10.07
2023-02-18T10:54:57.846Z,10.34
2023-02-18T10:57:25.447Z,10.26
2023-02-18T11:00:01.700Z,10.22
2023-02-18T11:02:32.499Z,10.06
2023-02-18T11:05:16.547Z,10.03
2023-02-18T11:07:48.814Z,10.10
2023-02-18T11:10:30.335Z,9.93
2023-02-18T11:13:05.568Z,10.14
2023-02-18T11:15:32.414Z,10.19
2023-02-18T11:18:14.700Z,10.03
2023-02-18T11:20:42.085Z,10.05
2023-02-18T11:23:19.522Z,10.06
2023-02-18T11:26:00.667Z,9.98
2023-02-18T11:28:49.966Z,10.02
2023-02-18T11:31:22.173Z,10.10
2023-02-18T11:34:00.875Z,10.37
2023-02-18T11:36:33.448Z,10.21
2023-02-18T11:39:18.595Z,10.03
2023-02-18T11:41:56.081Z,10.11
2023-02-18T11:44:42.314Z,10.30
2023-02-18T11:47:15.051Z,9.91
2023-02-18T11:49:43.624Z,10.05
2023-02-18T11:52:33.356Z,9.99
2023-02-18T11:54:59.898Z,10.18
2023-02-18T11:57:28.121Z,10.17
2023-02-18T11:59:55.342Z,10.15
2023-02-18T12:02:31.615Z,10.07
2023-02-18T12:05:04.407Z,10.36
2023-02-18T12:08:09.823Z,10.21
2023-02-18T12:10:38.230Z,10.10
2023-02-18T12:13:38.374Z,10.12
2023-02-18T12:16:41.918Z,10.21
2023-02-18T12:19:37.136Z,9.85
2023-02-18T12:22:40.705Z,9.79
2023-02-18T12:25:25.990Z,9.94
2023-02-18T12:28:02.101Z,10.18
2023-02-18T12:30:31.932Z,9.93
2023-02-18T12:33:46.405Z,9.96
2023-02-18T12:36:34.953Z,10.17
2023-02-18T12:39:19.536Z,10.14
2023-02-18T12:42:23.371Z,10.02
2023-02-18T12:44:58.975Z,10.08
2023-02-18T12:47:47.346Z,9.88
2023-02-18T12:50:36.825Z,10.09
2023-02-18T12:53:20.421Z,10.04
2023-02-18T12:56:05.340Z,10.04
2023-02-18T12:58:34.713Z,10.16
2023-02-18T13:01:22.650Z,10.18
2023-02-18T13:04:00.957Z,10.07
2023-02-18T13:06:33.666Z,10.13
2023-02-18T13:09:16.618Z,9.98
2023-02-18T13:12:01.530Z,9.89
2023-02-18T13:14:59.302Z,9.94
2023-02-18T13:17:29.751Z,9.92
2023-02-18T13:20:01.763Z,10.07
2023-02-18T13:22:31.014Z,10.10
2023-02-18T13:24:59.785Z,10.02
2023-02-18T13:27:29.392Z,10.03
2023-02-18T13:30:07.885Z,10.03
2023-02-18T13:32:48.491Z,10.10
2023-02-18T13:35:29.582Z,10.07
2023-02-18T13:38:24.061Z,10.19
2023-02-18T13:40:51.470Z,10.30
2023-02-18T13:43:21.098Z,10.37
2023-02-18T13:46:06.521Z,10.31
2023-02-18T13:48:40.430Z,10.31
2023-02-18T13:51:07.460Z,10.40
2023-02-18T13:53:57.362Z,10.26
2023-02-18T13:56:30.023Z,10.27
2023-02-18T13:59:08.067Z,10.20
2023-02-18T14:01:41.495Z,10.23
2023-02-18T14:04:32.962Z,10.16
2023-02-18T14:07:27.806Z,10.28
2023-02-18T14:09:59.735Z,10.15
2023-02-18T14:12:37.634Z,10.23
2023-02-18T14:15:27.598Z,10.36
2023-02-18T14:18:12.651Z,10.36
2023-02-18T14:20:39.236Z,10.40
2023-02-18T14:23:39.343Z,10.19
2023-02-18T14:26:07.483Z,10.19
2023-02-18T14:28:34.000Z,10.36
2023-02-18T14:31:03.584Z,10.45
2023-02-18T14:33:35.129Z,10.48
2023-02-18T14:36:16.965Z,10.52
2023-02-18T14:38:57.166Z,10.49
2023-02-18T14:41:46.216Z,10.50
2023-02-18T14:44:31.625Z,10.57
2023-02-18T14:47:10.355Z,10.44
2023-02-18T14:49:39.506Z,10.71
2023-02-18T14:52:22.157Z,10.59
2023-02-18T14:54:49.470Z,10.69
2023-02-18T14:57:20.457Z,10.53
2023-02-18T14:59:48.467Z,10.49
2023-02-18T15:02:30.773Z,10.86
2023-02-18T15:05:15.460Z,10.67
2023-02-18T15:07:42.054Z,10.59
2023-02-18T15:10:15.960Z,10.71
2023-02-18T15:12:42.750Z,10.60
2023-02-18T15:15:15.632Z,10.68
2023-02-18T15:17:47.640Z,10.81
2023-02-18T15:20:15.544Z,10.74
2023-02-18T15:22:42.642Z,10.76
2023-02-18T15:25:13.227Z,10.92
2023-02-18T15:27:45.874Z,10.79
2023-02-18T15:30:31.415Z,10.86
2023-02-18T15:33:00.880Z,10.85
2023-02-18T15:35:31.484Z,10.84
2023-02-18T15:37:59.915Z,10.90
2023-02-18T15:40:32.112Z,11.09
2023-02-18T15:43:02.059Z,10.83
2023-02-18T15:45:38.901Z,10.90
2023-02-18T15:48:06.180Z,10.72
2023-02-18T15:50:38.518Z,10.87
2023-02-18T15:53:08.957Z,10.92
2023-02-18T15:55:39.188Z,10.76
2023-02-18T15:58:13.677Z,10.88
2023-02-18T16:00:47.150Z,10.88
2023-02-18T16:03:22.784Z,10.88
2023-02-18T16:05:50.177Z,10.84
2023-02-18T16:08:24.673Z,10.91
2023-02-18T16:10:56.880Z,10.73
2023-02-18T16:13:26.805Z,10.77
2023-02-18T16:15:53.897Z,10.89
2023-02-18T16:18:41.202Z,10.88
2023-02-18T16:21:25.942Z,10.80
2023-02-18T16:23:59.405Z,10.73
2023-02-18T16:26:38.305Z,10.80
2023-02-18T16:29:16.255Z,10.71
2023-02-18T16:31:43.614Z,10.83
2023-02-18T16:34:10.399Z,10.70
2023-02-18T16:36:37.146Z,10.90
2023-02-18T16:39:04.011Z,11.10
2023-02-18T16:41:30.815Z,10.67
2023-02-18T16:43:57.513Z,10.83
2023-02-18T16:46:25.078Z,10.91
2023-02-18T16:48:55.843Z,10.87
2023-02-18T16:51:25.887Z,10.59
2023-02-18T16:53:52.503Z,10.81
2023-02-18T16:56:22.704Z,10.77
2023-02-18T16:58:50.878Z,10.92
2023-02-18T17:01:23.256Z,10.74
2023-02-18T17:03:51.416Z,10.76
2023-02-18T17:06:18.472Z,10.92
2023-02-18T17:08:45.302Z,10.96
2023-02-18T17:11:22.294Z,10.89
2023-02-18T17:13:50.324Z,10.85
2023-02-18T17:16:17.186Z,10.72
2023-02-18T17:18:44.923Z,10.72
2023-02-18T17:21:16.885Z,10.69
2023-02-18T17:23:43.881Z,10.65
2023-02-18T17:26:20.980Z,10.82
2023-02-18T17:28:47.681Z,10.76
2023-02-18T17:31:18.897Z,10.76
2023-02-18T17:33:46.516Z,10.78
2023-02-18T17:36:13.689Z,10.55
2023-02-18T17:38:40.731Z,10.59
2023-02-18T17:41:08.169Z,10.73
2023-02-18T17:43:34.892Z,10.71
2023-02-18T17:46:01.674Z,10.63
2023-02-18T17:48:28.451Z,10.78
2023-02-18T17:50:55.655Z,10.89
2023-02-18T17:53:22.587Z,10.86
2023-02-18T17:55:49.921Z,10.72
2023-02-18T17:58:16.924Z,10.75
2023-02-18T18:00:45.320Z,10.62
2023-02-18T18:03:13.858Z,10.71
2023-02-18T18:05:42.175Z,10.68
2023-02-18T18:08:09.520Z,10.62
2023-02-18T18:10:39.569Z,10.75
2023-02-18T18:13:09.238Z,10.91
2023-02-18T18:15:41.699Z,10.92
2023-02-18T18:18:10.862Z,10.72
2023-02-18T18:20:38.793Z,10.78
2023-02-18T18:23:08.051Z,10.84
2023-02-18T18:25:38.700Z,10.81
2023-02-18T18:28:06.788Z,10.74
2023-02-18T18:30:35.807Z,10.85
2023-02-18T18:33:03.656Z,10.84
2023-02-18T18:35:33.370Z,10.60
2023-02-18T18:38:00.786Z,10.68
2023-02-18T18:40:29.656Z,10.81
2023-02-18T18:42:57.603Z,10.67
2023-02-18T18:45:25.777Z,10.72
2023-02-18T18:47:53.868Z,10.70
2023-02-18T18:50:21.978Z,10.58
2023-02-18T18:52:50.318Z,10.70
2023-02-18T18:55:35.604Z,10.65
2023-02-18T18:58:02.700Z,10.62
2023-02-18T19:00:32.667Z,10.39
2023-02-18T19:03:00.178Z,10.71
2023-02-18T19:05:26.798Z,10.76
2023-02-18T19:07:53.979Z,10.52
2023-02-18T19:10:21.041Z,10.50
2023-02-18T19:12:49.379Z,10.68
2023-02-18T19:15:19.760Z,10.39
2023-02-18T19:17:52.830Z,10.53
2023-02-18T19:20:26.036Z,10.52
2023-02-18T19:22:52.699Z,10.62
2023-02-18T19:25:20.527Z,10.52
2023-02-18T19:27:48.997Z,10.58
2023-02-18T19:30:28.111Z,10.28
2023-02-18T19:32:57.566Z,10.31
2023-02-18T19:35:26.345Z,10.56
2023-02-18T19:37:53.151Z,10.37
2023-02-18T19:40:22.735Z,10.35
2023-02-18T19:42:49.300Z,10.39
2023-02-18T19:45:17.640Z,10.36
2023-02-18T19:47:44.619Z,10.37
2023-02-18T19:50:14.774Z,10.54
2023-02-18T19:52:41.402Z,10.37
2023-02-18T19:55:08.425Z,10.41
2023-02-18T19:57:35.136Z,10.51
2023-02-18T20:00:03.561Z,10.60
2023-02-18T20:02:40.134Z,10.62
2023-02-18T20:05:07.897Z,10.73
2023-02-18T20:07:36.264Z,10.58
2023-02-18T20:10:04.783Z,10.67
2023-02-18T20:12:32.005Z,10.51
2023-02-18T20:14:58.650Z,10.64
2023-02-18T20:17:25.454Z,10.55
2023-02-18T20:19:52.013Z,10.62
2023-02-18T20:22:18.615Z,10.69
2023-02-18T20:24:45.303Z,10.61
2023-02-18T20:27:12.731Z,10.71
2023-02-18T20:29:39.517Z,10.57
2023-02-18T20:32:06.868Z,10.63
2023-02-18T20:34:33.612Z,10.65
2023-02-18T20:37:01.038Z,10.67
2023-02-18T20:39:28.071Z,10.61
2023-02-18T20:41:55.036Z,10.57
2023-02-18T20:44:21.973Z,10.37
2023-02-18T20:46:49.686Z,10.44
2023-02-18T20:49:18.946Z,10.55
2023-02-18T20:51:45.680Z,10.38
2023-02-18T20:54:15.795Z,10.53
2023-02-18T20:56:43.748Z,10.71
2023-02-18T20:59:14.841Z,10.84
2023-02-18T21:01:42.976Z,10.67
2023-02-18T21:04:12.399Z,10.60
2023-02-18T21:06:39.627Z,10.55
2023-02-18T21:09:06.650Z,10.59
2023-02-18T21:11:33.543Z,10.57
2023-02-18T21:14:00.688Z,10.75
2023-02-18T21:16:28.719Z,10.60
2023-02-18T21:18:55.411Z,10.67
2023-02-18T21:21:23.658Z,10.70
2023-02-18T21:23:50.979Z,10.61
2023-02-18T21:26:20.513Z,10.64
2023-02-18T21:28:48.070Z,10.60
2023-02-18T21:31:20.280Z,10.65
2023-02-18T21:33:47.627Z,10.56
2023-02-18T21:36:14.472Z,10.32
2023-02-18T21:38:44.443Z,10.57
2023-02-18T21:41:12.597Z,10.36
2023-02-18T21:43:39.577Z,10.35
2023-02-18T21:46:14.569Z,10.35
2023-02-18T21:48:59.961Z,10.33
2023-02-18T21:51:45.445Z,10.30
2023-02-18T21:54:12.176Z,10.39
2023-02-18T21:56:38.780Z,10.59
2023-02-18T21:59:05.326Z,10.40
2023-02-18T22:01:31.929Z,10.43
2023-02-18T22:03:58.567Z,10.30
2023-02-18T22:06:25.169Z,10.41
2023-02-18T22:08:51.784Z,10.27
2023-02-18T22:11:18.932Z,10.05
2023-02-18T22:13:45.623Z,10.47
2023-02-18T22:16:12.204Z,10.56
2023-02-18T22:18:38.827Z,10.56
2023-02-18T22:21:09.663Z,10.47
2023-02-18T22:23:36.612Z,10.41
2023-02-18T22:26:08.057Z,10.48
2023-02-18T22:28:35.695Z,10.38
2023-02-18T22:31:11.167Z,10.44
2023-02-18T22:33:38.480Z,10.36
2023-02-18T22:36:09.411Z,10.14
2023-02-18T22:38:37.851Z,10.12
2023-02-18T22:41:11.674Z,10.15
2023-02-18T22:43:39.299Z,10.36
2023-02-18T22:46:11.790Z,10.45
2023-02-18T22:48:39.784Z,10.40
2023-02-18T22:51:09.839Z,10.59
2023-02-18T22:53:37.955Z,10.54
2023-02-18T22:56:10.522Z,10.62
2023-02-18T22:58:37.100Z,10.62
2023-02-18T23:01:05.033Z,10.55
2023-02-18T23:03:33.245Z,10.55
2023-02-18T23:06:04.835Z,10.54
2023-02-18T23:08:32.996Z,10.44
2023-02-18T23:11:01.612Z,10.61
2023-02-18T23:13:28.400Z,10.52
2023-02-18T23:16:00.367Z,10.44
2023-02-18T23:18:27.799Z,10.55
2023-02-18T23:21:21.166Z,10.47
2023-02-18T23:23:50.084Z,10.35
2023-02-18T23:26:17.722Z,10.49
2023-02-18T23:28:47.694Z,10.39
2023-02-18T23:31:23.800Z,10.50
2023-02-18T23:33:59.670Z,10.53
2023-02-18T23:36:31.952Z,10.26
2023-02-18T23:39:01.589Z,10.33
2023-02-18T23:41:29.161Z,10.34
2023-02-18T23:43:55.855Z,10.30
2023-02-18T23:46:24.945Z,10.28
2023-02-18T23:48:54.231Z,10.04
2023-02-18T23:51:22.623Z,10.13
2023-02-18T23:53:49.943Z,9.89
2023-02-18T23:56:21.743Z,9.87
2023-02-18T23:58:52.338Z,10.01
